Time;durP1;ratioP1;P1;durP2;ratioP2;P2;SDS_P1;SDS_P2;PMS_P1;PMS_P2;Temp;Humidity;BMP_temperature;BMP_pressure;BME280_temperature;BME280_humidity;BME280_pressure;Samples;Min_cycle;Max_cycle;Signal;HPM_P1;HPM_P2
2021/05/13 00:00:10;;;;;;;7.80;4.20;;;10.70;63.10;;;;;;5141516;27;39814;-79
2021/05/13 00:02:40;;;;;;;5.67;3.83;;;10.70;63.00;;;;;;5123510;27;40202;-78
2021/05/13 00:05:08;;;;;;;5.97;4.60;;;10.70;62.90;;;;;;5114142;27;36552;-79
2021/05/13 00:07:36;;;;;;;4.70;4.00;;;10.60;62.60;;;;;;5108755;28;36545;-78
2021/05/13 00:10:05;;;;;;;6.73;4.17;;;10.60;62.70;;;;;;5129072;27;40262;-79
2021/05/13 00:12:41;;;;;;;5.33;4.50;;;10.60;62.60;;;;;;5134274;27;39081;-79
2021/05/13 00:15:13;;;;;;;7.37;4.23;;;10.60;62.70;;;;;;5125563;27;38284;-79
2021/05/13 00:17:40;;;;;;;9.97;6.10;;;10.60;62.70;;;;;;5124821;27;37226;-80
2021/05/13 00:20:10;;;;;;;6.40;4.87;;;10.60;62.80;;;;;;5141190;27;39469;-80
2021/05/13 00:22:38;;;;;;;7.93;5.10;;;10.50;62.80;;;;;;5134729;27;38840;-80
2021/05/13 00:25:07;;;;;;;7.13;5.00;;;10.50;62.90;;;;;;5108367;27;37495;-77
2021/05/13 00:27:36;;;;;;;7.70;5.00;;;10.50;62.90;;;;;;5125881;27;36502;-79
2021/05/13 00:30:06;;;;;;;5.30;4.80;;;10.50;63.10;;;;;;5135537;27;39671;-78
2021/05/13 00:32:37;;;;;;;5.27;4.60;;;10.50;63.10;;;;;;5129785;27;37449;-80
2021/05/13 00:35:05;;;;;;;9.40;4.90;;;10.50;63.10;;;;;;5137901;27;39274;-79
2021/05/13 00:37:32;;;;;;;5.40;4.63;;;10.50;63.40;;;;;;5128986;27;36898;-80
2021/05/13 00:40:00;;;;;;;6.20;5.17;;;10.50;63.30;;;;;;5115702;27;38207;-79
2021/05/13 00:42:28;;;;;;;5.83;5.20;;;10.50;63.70;;;;;;5113878;27;37845;-78
2021/05/13 00:44:56;;;;;;;5.63;4.70;;;10.50;63.30;;;;;;5137054;27;37543;-79
2021/05/13 00:47:25;;;;;;;7.43;5.17;;;10.50;63.50;;;;;;5140068;27;37543;-79
2021/05/13 00:49:55;;;;;;;5.80;5.10;;;10.40;63.60;;;;;;5095360;27;38867;-79
2021/05/13 00:52:34;;;;;;;6.60;5.30;;;10.50;63.70;;;;;;5116923;27;38638;-79
2021/05/13 00:55:02;;;;;;;5.73;4.60;;;10.40;63.60;;;;;;5134151;27;38520;-79
2021/05/13 00:57:31;;;;;;;5.20;4.70;;;10.40;63.60;;;;;;5116918;27;36634;-80
2021/05/13 01:00:07;;;;;;;5.30;4.70;;;10.40;63.60;;;;;;5132664;27;39848;-79
2021/05/13 01:02:37;;;;;;;7.50;5.40;;;10.30;63.80;;;;;;5121091;27;37734;-79
2021/05/13 01:05:05;;;;;;;7.73;5.70;;;10.40;63.70;;;;;;5128223;27;38535;-79
2021/05/13 01:07:32;;;;;;;6.50;5.37;;;10.30;63.50;;;;;;5130594;27;35957;-79
2021/05/13 01:09:59;;;;;;;7.17;5.80;;;10.30;63.70;;;;;;5142682;27;40312;-79
2021/05/13 01:12:27;;;;;;;5.67;5.13;;;10.30;64.00;;;;;;5100545;27;37881;-79
2021/05/13 01:14:59;;;;;;;6.63;5.93;;;10.20;64.30;;;;;;5113787;27;37056;-79
2021/05/13 01:17:38;;;;;;;7.60;5.70;;;10.30;64.50;;;;;;5114527;27;37065;-79
2021/05/13 01:20:07;;;;;;;6.03;5.50;;;10.30;64.50;;;;;;5125563;27;39403;-79
2021/05/13 01:22:35;;;;;;;6.10;5.37;;;10.30;64.60;;;;;;5138840;27;38120;-78
2021/05/13 01:25:02;;;;;;;7.87;5.53;;;10.40;64.60;;;;;;5132485;27;39544;-80
2021/05/13 01:27:29;;;;;;;6.43;5.70;;;10.40;64.50;;;;;;5131951;27;37714;-79
2021/05/13 01:29:59;;;;;;;6.17;5.57;;;10.40;64.60;;;;;;5116320;27;38605;-80
2021/05/13 01:32:26;;;;;;;7.47;5.60;;;10.40;64.60;;;;;;5113667;27;37451;-80
2021/05/13 01:34:54;;;;;;;6.67;5.53;;;10.40;65.30;;;;;;5114994;27;36690;-78
2021/05/13 01:37:21;;;;;;;6.23;5.63;;;10.40;64.70;;;;;;5129678;27;37382;-81
2021/05/13 01:39:50;;;;;;;8.17;5.73;;;10.40;64.70;;;;;;5113914;27;39615;-80
2021/05/13 01:42:17;;;;;;;6.13;5.40;;;10.40;64.80;;;;;;5114750;27;37741;-79
2021/05/13 01:44:51;;;;;;;8.20;5.33;;;10.40;64.80;;;;;;5118603;27;36561;-80
2021/05/13 01:47:20;;;;;;;6.20;5.43;;;10.50;64.90;;;;;;5150292;27;37834;-79
2021/05/13 01:49:49;;;;;;;7.67;5.60;;;10.50;64.90;;;;;;5126864;27;40623;-79
2021/05/13 01:52:16;;;;;;;5.80;5.10;;;10.50;64.90;;;;;;5113037;27;38109;-78
2021/05/13 01:54:44;;;;;;;5.50;4.93;;;10.50;64.80;;;;;;5135979;27;38970;-80
2021/05/13 01:57:12;;;;;;;5.60;5.10;;;10.50;64.80;;;;;;5111693;27;36087;-79
2021/05/13 01:59:40;;;;;;;4.83;4.23;;;10.50;64.50;;;;;;5132871;27;40604;-78
2021/05/13 02:02:09;;;;;;;6.60;5.17;;;10.50;64.50;;;;;;5118058;27;37892;-79
2021/05/13 02:04:37;;;;;;;6.37;5.40;;;10.50;64.50;;;;;;5111638;27;36936;-79
2021/05/13 02:07:04;;;;;;;5.93;5.13;;;10.50;64.60;;;;;;5118429;27;36022;-80
2021/05/13 02:09:33;;;;;;;6.90;5.83;;;10.50;64.70;;;;;;5122325;27;39264;-79
2021/05/13 02:12:03;;;;;;;5.83;5.33;;;10.50;64.70;;;;;;5126505;27;39609;-79
2021/05/13 02:14:31;;;;;;;7.10;5.80;;;10.50;64.60;;;;;;5118956;27;36616;-80
2021/05/13 02:16:59;;;;;;;8.33;6.43;;;10.50;64.60;;;;;;5138835;27;38696;-80
2021/05/13 02:19:26;;;;;;;6.77;5.47;;;10.40;64.50;;;;;;5135797;27;40731;-79
2021/05/13 02:21:53;;;;;;;9.53;6.57;;;10.40;64.70;;;;;;5153959;27;39162;-79
2021/05/13 02:24:20;;;;;;;5.77;5.17;;;10.40;64.70;;;;;;5141186;27;38790;-79
2021/05/13 02:26:47;;;;;;;6.13;5.50;;;10.40;64.80;;;;;;5141414;27;37541;-79
2021/05/13 02:29:14;;;;;;;6.30;5.70;;;10.30;64.80;;;;;;5128766;27;38320;-80
2021/05/13 02:31:42;;;;;;;7.83;5.47;;;10.30;64.90;;;;;;5135965;27;39373;-79
2021/05/13 02:34:09;;;;;;;7.10;5.13;;;10.30;65.00;;;;;;5133644;27;38541;-79
2021/05/13 02:36:37;;;;;;;5.57;4.97;;;10.30;64.90;;;;;;5130158;27;36805;-79
2021/05/13 02:39:05;;;;;;;7.30;5.17;;;10.30;65.00;;;;;;5121036;27;39729;-79
2021/05/13 02:41:32;;;;;;;6.47;5.50;;;10.30;65.10;;;;;;5118803;27;37611;-79
2021/05/13 02:43:59;;;;;;;7.87;5.87;;;10.30;64.90;;;;;;5143937;27;38163;-78
2021/05/13 02:46:26;;;;;;;9.40;5.03;;;10.30;65.00;;;;;;5139794;27;36123;-78
2021/05/13 02:48:53;;;;;;;6.03;5.30;;;10.30;65.00;;;;;;5135633;27;39361;-79
2021/05/13 02:51:21;;;;;;;7.83;5.80;;;10.30;65.00;;;;;;5138759;27;39880;-79
2021/05/13 02:53:48;;;;;;;8.20;5.70;;;10.30;64.90;;;;;;5114406;27;36832;-79
2021/05/13 02:56:17;;;;;;;6.93;5.97;;;10.30;64.70;;;;;;5133916;27;35915;-79
2021/05/13 02:58:46;;;;;;;5.63;5.13;;;10.30;64.50;;;;;;5136525;27;41385;-78
2021/05/13 03:01:23;;;;;;;7.87;5.47;;;10.30;64.30;;;;;;5142645;27;39279;-79
2021/05/13 03:03:51;;;;;;;9.73;6.67;;;10.30;64.20;;;;;;5132006;27;37470;-79
2021/05/13 03:06:19;;;;;;;10.20;5.80;;;10.30;64.40;;;;;;5130111;27;37866;-79
2021/05/13 03:08:49;;;;;;;7.03;5.90;;;10.20;64.60;;;;;;5137065;27;40510;-80
2021/05/13 03:11:16;;;;;;;7.13;5.90;;;10.10;64.80;;;;;;5131054;27;38128;-79
2021/05/13 03:13:43;;;;;;;9.17;5.70;;;10.10;65.00;;;;;;5144576;27;38482;-79
2021/05/13 03:16:11;;;;;;;9.03;5.60;;;10.20;65.20;;;;;;5120631;27;36722;-80
2021/05/13 03:18:38;;;;;;;6.57;5.83;;;10.20;65.30;;;;;;5135612;27;39735;-80
2021/05/13 03:21:10;;;;;;;7.23;5.50;;;10.10;65.20;;;;;;5136199;27;38862;-80
2021/05/13 03:23:44;;;;;;;6.13;5.53;;;10.20;65.10;;;;;;5139042;27;38783;-80
2021/05/13 03:26:11;;;;;;;6.73;5.40;;;10.20;65.20;;;;;;5110877;27;35974;-79
2021/05/13 03:28:39;;;;;;;6.00;5.30;;;10.20;65.10;;;;;;5130857;27;39336;-78
2021/05/13 03:31:06;;;;;;;6.93;5.70;;;10.30;65.00;;;;;;5146655;27;38754;-79
2021/05/13 03:33:33;;;;;;;7.57;5.73;;;10.30;64.50;;;;;;5139476;27;38711;-80
2021/05/13 03:36:00;;;;;;;6.20;5.60;;;10.20;64.50;;;;;;5147731;27;38766;-79
2021/05/13 03:38:27;;;;;;;6.50;5.90;;;10.20;64.50;;;;;;5115637;27;39287;-79
2021/05/13 03:40:55;;;;;;;7.33;5.40;;;10.20;64.60;;;;;;5142899;27;39257;-78
2021/05/13 03:43:22;;;;;;;6.80;6.07;;;10.20;64.50;;;;;;5143401;27;38577;-78
2021/05/13 03:45:49;;;;;;;7.40;6.20;;;10.20;64.40;;;;;;5120388;27;35909;-78
2021/05/13 03:48:16;;;;;;;7.37;5.77;;;10.10;64.50;;;;;;5137783;27;39654;-79
2021/05/13 03:50:44;;;;;;;10.83;8.10;;;10.10;64.40;;;;;;5134725;27;39038;-78
2021/05/13 03:53:11;;;;;;;8.83;7.83;;;10.00;64.70;;;;;;5130916;27;37400;-78
2021/05/13 03:55:38;;;;;;;10.93;8.20;;;10.10;64.80;;;;;;5132229;27;37986;-78
2021/05/13 03:58:09;;;;;;;6.93;5.67;;;10.10;64.80;;;;;;5133672;27;39850;-79
2021/05/13 04:00:45;;;;;;;6.80;6.20;;;10.10;64.90;;;;;;5116012;27;37656;-78
2021/05/13 04:03:12;;;;;;;7.93;7.10;;;10.10;64.90;;;;;;5137664;27;38654;-79
2021/05/13 04:05:42;;;;;;;7.13;6.40;;;10.10;65.00;;;;;;5131515;27;37174;-78
2021/05/13 04:08:09;;;;;;;7.03;6.33;;;10.20;65.10;;;;;;5123369;27;40043;-79
2021/05/13 04:10:37;;;;;;;9.37;6.57;;;10.20;65.20;;;;;;5131377;27;40126;-78
2021/05/13 04:13:07;;;;;;;7.60;6.43;;;10.20;65.30;;;;;;5132412;27;37862;-78
2021/05/13 04:15:37;;;;;;;6.03;5.43;;;10.20;65.00;;;;;;5128521;27;36968;-78
2021/05/13 04:18:04;;;;;;;7.57;5.90;;;10.30;65.10;;;;;;5133430;27;40317;-79
2021/05/13 04:20:31;;;;;;;6.33;5.60;;;10.30;65.00;;;;;;5125883;27;39892;-78
2021/05/13 04:22:59;;;;;;;6.17;5.57;;;10.30;65.00;;;;;;5135662;27;20570;-79
2021/05/13 04:25:26;;;;;;;7.10;5.70;;;10.40;65.10;;;;;;5133185;27;37210;-79
2021/05/13 04:27:54;;;;;;;11.23;5.40;;;10.50;64.80;;;;;;5136133;27;39657;-78
2021/05/13 04:30:22;;;;;;;6.70;6.10;;;10.50;64.60;;;;;;5145414;27;39994;-78
2021/05/13 04:32:49;;;;;;;5.20;4.70;;;10.50;64.40;;;;;;5135787;27;37832;-78
2021/05/13 04:35:17;;;;;;;9.43;5.33;;;10.50;64.20;;;;;;5108499;27;35947;-79
2021/05/13 04:37:46;;;;;;;11.43;5.50;;;10.50;64.10;;;;;;5115820;27;37828;-78
2021/05/13 04:40:14;;;;;;;7.50;5.30;;;10.50;64.00;;;;;;5135412;27;39050;-79
2021/05/13 04:42:41;;;;;;;7.70;5.60;;;10.50;64.00;;;;;;5115571;27;37472;-79
2021/05/13 04:45:09;;;;;;;6.70;4.97;;;10.40;63.80;;;;;;5121868;27;36766;-79
2021/05/13 04:47:51;;;;;;;6.20;5.03;;;10.40;63.90;;;;;;5129736;27;39620;-79
2021/05/13 04:50:19;;;;;;;5.90;4.73;;;10.40;64.00;;;;;;5134832;27;39878;-79
2021/05/13 04:52:46;;;;;;;6.43;5.50;;;10.50;64.10;;;;;;5139461;27;38481;-78
2021/05/13 04:55:14;;;;;;;5.73;5.00;;;10.60;64.60;;;;;;5114565;27;35999;-78
2021/05/13 04:57:41;;;;;;;5.33;4.53;;;10.80;64.90;;;;;;5149467;27;39828;-78
2021/05/13 05:00:11;;;;;;;4.57;4.17;;;11.10;64.90;;;;;;5139669;27;39434;-78
2021/05/13 05:02:38;;;;;;;5.70;4.00;;;11.40;64.50;;;;;;5125646;27;37991;-78
2021/05/13 05:05:09;;;;;;;5.77;4.10;;;11.60;63.40;;;;;;5139840;27;37699;-78
2021/05/13 05:07:37;;;;;;;4.87;4.37;;;11.90;62.60;;;;;;5148207;27;40516;-78
2021/05/13 05:10:04;;;;;;;4.83;4.40;;;12.10;60.90;;;;;;5116194;27;37779;-79
2021/05/13 05:12:32;;;;;;;6.03;4.07;;;12.30;60.60;;;;;;5135014;27;37903;-78
2021/05/13 05:14:59;;;;;;;7.33;4.23;;;12.70;60.10;;;;;;5123586;27;35741;-78
2021/05/13 05:17:26;;;;;;;6.37;3.73;;;13.10;59.30;;;;;;5134290;27;39591;-78
2021/05/13 05:19:53;;;;;;;4.27;3.87;;;13.50;58.00;;;;;;5134667;27;38714;-79
2021/05/13 05:22:20;;;;;;;4.20;3.47;;;14.00;57.00;;;;;;5134231;27;37818;-78
2021/05/13 05:24:48;;;;;;;4.60;4.00;;;14.40;55.30;;;;;;5114255;27;35910;-79
2021/05/13 05:27:16;;;;;;;5.07;4.30;;;14.70;53.60;;;;;;5116544;27;38051;-79
2021/05/13 05:29:43;;;;;;;5.67;4.90;;;14.80;52.70;;;;;;5133673;27;39904;-79
2021/05/13 05:32:10;;;;;;;5.47;4.60;;;14.80;52.10;;;;;;5138553;27;36584;-79
2021/05/13 05:34:37;;;;;;;4.33;3.93;;;14.80;51.70;;;;;;5117544;27;36630;-78
2021/05/13 05:37:04;;;;;;;7.73;4.87;;;14.60;51.70;;;;;;5121157;27;38407;-79
2021/05/13 05:39:31;;;;;;;4.73;4.07;;;14.50;52.00;;;;;;5129305;27;38956;-79
2021/05/13 05:41:59;;;;;;;4.33;3.70;;;14.40;53.30;;;;;;5119259;27;37035;-79
2021/05/13 05:44:26;;;;;;;4.43;3.73;;;14.40;54.30;;;;;;5154088;27;38087;-79
2021/05/13 05:46:53;;;;;;;3.60;2.80;;;15.40;56.30;;;;;;5137582;27;39633;-79
2021/05/13 05:49:23;;;;;;;4.17;3.27;;;17.70;51.70;;;;;;5125830;27;38926;-79
2021/05/13 05:51:50;;;;;;;5.70;3.77;;;19.90;44.70;;;;;;5130678;27;37351;-79
2021/05/13 05:54:17;;;;;;;4.07;3.67;;;21.60;42.60;;;;;;5131047;27;37399;-79
2021/05/13 05:56:44;;;;;;;6.30;3.07;;;23.20;38.70;;;;;;5137236;27;40648;-80
2021/05/13 05:59:11;;;;;;;3.43;2.67;;;24.80;37.00;;;;;;5137222;27;39145;-80
2021/05/13 06:01:39;;;;;;;3.90;2.80;;;26.80;33.40;;;;;;5136146;27;38297;-80
2021/05/13 06:04:08;;;;;;;3.40;3.10;;;28.70;30.70;;;;;;5130366;27;35372;-81
2021/05/13 06:06:36;;;;;;;6.77;3.90;;;30.50;29.00;;;;;;5119152;27;38970;-80
2021/05/13 06:09:04;;;;;;;4.20;3.13;;;32.10;27.30;;;;;;5136886;27;39567;-81
2021/05/13 06:11:34;;;;;;;3.50;3.20;;;32.20;25.10;;;;;;5137987;27;38354;-80
2021/05/13 06:14:01;;;;;;;5.10;3.20;;;31.10;25.40;;;;;;5132933;27;37174;-80
2021/05/13 06:16:29;;;;;;;3.47;2.70;;;30.00;26.30;;;;;;5137124;27;40625;-78
2021/05/13 06:18:59;;;;;;;3.13;2.83;;;28.90;26.80;;;;;;5141024;27;39380;-80
2021/05/13 06:21:27;;;;;;;4.13;3.17;;;27.60;28.00;;;;;;5139063;27;38323;-81
2021/05/13 06:23:59;;;;;;;4.27;2.80;;;26.70;28.80;;;;;;5126735;27;36973;-80
2021/05/13 06:26:28;;;;;;;3.37;3.03;;;26.80;29.70;;;;;;5135389;27;37383;-80
2021/05/13 06:28:57;;;;;;;3.97;3.20;;;28.20;28.10;;;;;;5113223;27;36500;-80
2021/05/13 06:31:25;;;;;;;3.67;2.73;;;30.10;26.90;;;;;;5117777;27;37361;-80
2021/05/13 06:33:52;;;;;;;3.57;3.10;;;31.80;24.80;;;;;;5134549;27;38120;-81
2021/05/13 06:36:20;;;;;;;3.47;3.10;;;33.30;23.40;;;;;;5139369;27;40399;-80
2021/05/13 06:38:48;;;;;;;3.80;3.43;;;34.70;22.10;;;;;;5137725;27;39016;-80
2021/05/13 06:41:16;;;;;;;4.73;3.43;;;35.70;21.30;;;;;;5135926;27;38075;-81
2021/05/13 06:43:43;;;;;;;5.23;2.80;;;36.50;20.90;;;;;;5134440;27;37210;-81
2021/05/13 06:46:12;;;;;;;3.43;2.60;;;37.00;19.80;;;;;;5130214;27;39662;-81
2021/05/13 06:48:40;;;;;;;3.00;2.60;;;37.60;19.30;;;;;;5136232;27;39919;-83
2021/05/13 06:51:08;;;;;;;4.73;3.63;;;38.30;18.80;;;;;;5136149;27;39414;-81
2021/05/13 06:53:35;;;;;;;3.80;2.80;;;38.90;18.10;;;;;;5139505;27;36920;-81
2021/05/13 06:56:02;;;;;;;3.37;2.70;;;39.60;17.20;;;;;;5141772;27;40019;-81
2021/05/13 06:58:30;;;;;;;3.30;3.00;;;39.50;16.90;;;;;;5128749;27;36362;-80
2021/05/13 07:00:57;;;;;;;3.30;3.00;;;39.00;16.50;;;;;;5161231;27;38188;-81
2021/05/13 07:03:24;;;;;;;5.57;2.77;;;38.90;17.20;;;;;;5155020;27;37358;-82
2021/05/13 07:05:52;;;;;;;4.10;3.00;;;39.30;17.00;;;;;;5146650;27;39910;-81
2021/05/13 07:08:22;;;;;;;4.07;2.67;;;39.80;16.40;;;;;;5121427;27;37762;-81
2021/05/13 07:10:49;;;;;;;3.43;3.13;;;40.10;15.70;;;;;;5137070;27;38586;-81
2021/05/13 07:13:16;;;;;;;4.13;2.50;;;40.60;15.70;;;;;;5134538;27;37411;-82
2021/05/13 07:15:43;;;;;;;2.80;2.60;;;40.70;15.40;;;;;;5136838;27;40700;-81
2021/05/13 07:18:13;;;;;;;2.70;2.50;;;41.20;15.40;;;;;;5137156;27;39334;-82
2021/05/13 07:20:40;;;;;;;2.87;2.30;;;41.10;14.40;;;;;;5135328;27;38614;-82
2021/05/13 07:23:10;;;;;;;2.57;2.17;;;40.80;14.70;;;;;;5127260;27;36908;-81
2021/05/13 07:25:38;;;;;;;2.77;2.07;;;40.30;14.00;;;;;;5134150;27;39745;-82
2021/05/13 07:28:08;;;;;;;2.50;2.30;;;39.80;14.40;;;;;;5132455;27;38541;-82
2021/05/13 07:30:35;;;;;;;2.50;2.30;;;40.20;14.10;;;;;;5117357;27;36809;-82
2021/05/13 07:33:03;;;;;;;2.30;2.10;;;40.20;13.90;;;;;;5127124;27;37053;-82
2021/05/13 07:35:30;;;;;;;2.37;2.00;;;40.70;13.90;;;;;;5140668;27;40655;-82
2021/05/13 07:37:59;;;;;;;7.00;2.50;;;41.30;13.70;;;;;;5144218;27;39343;-83
2021/05/13 07:40:28;;;;;;;3.33;2.00;;;42.10;13.50;;;;;;5132009;27;38057;-83
2021/05/13 07:42:56;;;;;;;3.13;2.03;;;42.90;12.70;;;;;;5135670;27;36152;-83
2021/05/13 07:45:25;;;;;;;2.83;1.83;;;43.20;12.60;;;;;;5143684;27;39442;-82
2021/05/13 07:47:54;;;;;;;2.90;2.00;;;43.40;12.10;;;;;;5148324;27;39187;-82
2021/05/13 07:50:24;;;;;;;2.23;1.83;;;43.80;12.20;;;;;;5122819;27;37969;-82
2021/05/13 07:52:51;;;;;;;2.47;1.73;;;43.80;11.30;;;;;;5143625;27;36763;-82
2021/05/13 07:55:19;;;;;;;2.40;1.80;;;43.70;11.90;;;;;;5152168;27;40165;-82
2021/05/13 07:57:47;;;;;;;3.50;1.90;;;44.00;11.30;;;;;;5125698;27;39514;-82
2021/05/13 08:00:17;;;;;;;4.23;2.30;;;44.80;11.50;;;;;;5129308;27;38057;-82
2021/05/13 08:02:44;;;;;;;2.67;1.60;;;45.20;11.10;;;;;;5117296;27;37066;-83
2021/05/13 08:05:12;;;;;;;2.57;2.07;;;45.10;10.40;;;;;;5121473;27;38314;-83
2021/05/13 08:07:40;;;;;;;2.73;1.70;;;45.10;10.70;;;;;;5145707;27;39029;-82
2021/05/13 08:10:09;;;;;;;2.03;1.33;;;45.30;10.50;;;;;;5138890;27;38429;-83
2021/05/13 08:12:36;;;;;;;3.57;2.00;;;45.00;10.50;;;;;;5121178;27;35957;-83
2021/05/13 08:15:08;;;;;;;2.53;1.70;;;44.10;10.70;;;;;;5144295;27;39719;-82
2021/05/13 08:17:36;;;;;;;2.30;1.53;;;43.60;10.80;;;;;;5128045;27;39976;-82
2021/05/13 08:20:05;;;;;;;2.37;1.90;;;43.70;10.80;;;;;;5134254;27;37876;-82
2021/05/13 08:22:33;;;;;;;2.70;1.80;;;44.20;10.10;;;;;;5141954;27;37772;-82
2021/05/13 08:25:01;;;;;;;3.20;1.70;;;43.30;10.50;;;;;;5139267;27;39806;-82
2021/05/13 08:27:28;;;;;;;1.73;1.60;;;43.70;10.80;;;;;;5137805;27;38842;-82
2021/05/13 08:29:55;;;;;;;3.37;1.60;;;44.60;10.20;;;;;;5129931;27;37156;-82
2021/05/13 08:32:24;;;;;;;3.10;1.33;;;45.30;9.60;;;;;;5126781;27;37800;-82
2021/05/13 08:34:54;;;;;;;2.70;1.50;;;45.80;9.70;;;;;;5122714;27;40596;-82
2021/05/13 08:37:21;;;;;;;2.73;2.53;;;46.20;9.40;;;;;;5130345;27;39007;-82
2021/05/13 08:39:49;;;;;;;1.60;1.07;;;46.40;8.90;;;;;;5131878;27;38915;-82
2021/05/13 08:42:16;;;;;;;2.73;1.13;;;46.50;8.40;;;;;;5117540;27;35769;-82
2021/05/13 08:44:45;;;;;;;1.73;0.87;;;46.80;8.60;;;;;;5122812;27;40352;-82
2021/05/13 08:47:14;;;;;;;1.97;1.07;;;47.20;8.00;;;;;;5149939;27;40947;-82
2021/05/13 08:49:42;;;;;;;3.13;1.00;;;47.40;7.10;;;;;;5143489;27;38397;-82
2021/05/13 08:52:12;;;;;;;1.60;1.20;;;47.50;7.30;;;;;;5124926;27;37925;-81
2021/05/13 08:54:50;;;;;;;1.20;0.80;;;46.60;7.60;;;;;;5149039;27;39435;-81
2021/05/13 08:57:17;;;;;;;3.53;1.33;;;46.10;7.70;;;;;;5136535;27;39189;-82
2021/05/13 08:59:45;;;;;;;1.67;0.80;;;46.00;8.20;;;;;;5137240;27;38172;-81
2021/05/13 09:02:12;;;;;;;2.10;1.03;;;45.50;8.00;;;;;;5125257;27;37939;-82
2021/05/13 09:04:41;;;;;;;3.17;1.37;;;44.80;8.50;;;;;;5136926;27;40770;-82
2021/05/13 09:07:15;;;;;;;2.87;0.97;;;43.50;8.50;;;;;;5141809;27;39600;-83
2021/05/13 09:09:59;;;;;;;14.23;1.73;;;41.70;8.20;;;;;;5133891;27;38470;-81
2021/05/13 09:12:29;;;;;;;2.10;1.00;;;40.70;9.20;;;;;;5136556;27;37024;-80
2021/05/13 09:14:57;;;;;;;2.07;0.90;;;39.80;10.10;;;;;;5152619;27;39989;-81
2021/05/13 09:17:26;;;;;;;2.87;0.80;;;38.40;10.20;;;;;;5160313;27;37970;-82
2021/05/13 09:19:53;;;;;;;2.23;0.90;;;37.10;11.20;;;;;;5148461;27;38229;-80
2021/05/13 09:22:24;;;;;;;1.53;0.73;;;37.10;11.70;;;;;;5155159;27;37419;-81
2021/05/13 09:24:54;;;;;;;1.77;0.80;;;37.70;10.70;;;;;;5175189;27;38025;-82
2021/05/13 09:27:26;;;;;;;1.93;0.70;;;38.50;10.60;;;;;;5151353;27;40257;-81
2021/05/13 09:30:17;;;;;;;4.60;0.90;;;39.60;10.50;;;;;;5147923;27;38381;-83
2021/05/13 09:32:46;;;;;;;3.53;0.90;;;41.10;8.70;;;;;;5129317;27;36825;-81
2021/05/13 09:35:17;;;;;;;1.40;0.80;;;42.10;7.70;;;;;;5118754;27;38489;-82
2021/05/13 09:37:52;;;;;;;2.00;0.73;;;42.30;8.10;;;;;;5138536;27;38550;-83
2021/05/13 09:40:31;;;;;;;1.43;0.83;;;43.30;8.40;;;;;;5129027;27;38912;-83
2021/05/13 09:43:10;;;;;;;0.80;0.60;;;44.30;7.80;;;;;;5136182;27;37053;-82
2021/05/13 09:45:44;;;;;;;1.57;0.83;;;44.90;7.20;;;;;;5139840;27;39822;-82
2021/05/13 09:48:31;;;;;;;1.90;0.60;;;45.10;7.20;;;;;;5114098;28;38707;-81
2021/05/13 09:51:21;;;;;;;3.37;0.93;;;45.40;6.30;;;;;;5140545;27;38202;-81
2021/05/13 09:53:51;;;;;;;1.77;0.80;;;45.50;7.10;;;;;;5140708;27;37572;-81
2021/05/13 09:56:28;;;;;;;2.30;0.83;;;45.60;7.00;;;;;;5149875;27;39759;-83
2021/05/13 09:58:56;;;;;;;1.17;0.80;;;45.90;6.30;;;;;;5136627;27;37770;-82
2021/05/13 10:01:24;;;;;;;3.13;1.03;;;44.20;6.80;;;;;;5136897;27;39237;-81
2021/05/13 10:03:54;;;;;;;1.47;0.90;;;42.30;7.90;;;;;;5137935;27;37248;-81
2021/05/13 10:06:22;;;;;;;1.30;0.87;;;40.50;8.60;;;;;;5135323;27;39864;-81
2021/05/13 10:08:52;;;;;;;2.13;1.00;;;39.40;9.50;;;;;;5137238;27;38468;-82
2021/05/13 10:11:20;;;;;;;2.87;0.93;;;38.10;10.30;;;;;;5135600;27;37610;-82
2021/05/13 10:13:47;;;;;;;1.93;0.80;;;38.70;10.70;;;;;;5134227;27;38148;-81
2021/05/13 10:16:17;;;;;;;1.43;1.00;;;39.90;10.30;;;;;;5143047;27;39689;-83
2021/05/13 10:18:48;;;;;;;2.60;1.10;;;41.10;9.40;;;;;;5134226;27;39272;-82
2021/05/13 10:21:20;;;;;;;2.03;1.17;;;41.30;9.60;;;;;;5120474;27;36717;-83
2021/05/13 10:23:48;;;;;;;2.07;1.27;;;41.90;9.70;;;;;;5131550;27;34786;-82
2021/05/13 10:26:45;;;;;;;1.37;1.23;;;42.40;9.20;;;;;;5140466;27;39604;-82
2021/05/13 10:29:33;;;;;;;2.93;1.17;;;42.30;8.90;;;;;;5134400;27;39263;-82
2021/05/13 10:32:08;;;;;;;1.80;1.20;;;41.10;8.80;;;;;;5135305;27;39127;-81
2021/05/13 10:34:49;;;;;;;2.03;1.23;;;39.00;9.70;;;;;;5133697;27;37709;-81
2021/05/13 10:37:25;;;;;;;1.87;1.20;;;37.10;11.30;;;;;;5115822;27;38466;-81
2021/05/13 10:40:30;;;;;;;2.10;1.10;;;35.50;11.60;;;;;;5132665;27;39027;-82
2021/05/13 10:43:00;;;;;;;1.87;1.10;;;33.60;13.20;;;;;;5135144;27;38254;-83
2021/05/13 10:45:39;;;;;;;2.03;1.00;;;32.50;14.60;;;;;;5135789;27;36679;-82
2021/05/13 10:48:22;;;;;;;1.50;1.00;;;31.50;15.10;;;;;;5115816;27;39392;-82
2021/05/13 10:50:55;;;;;;;1.60;0.93;;;30.90;15.60;;;;;;5121325;27;39594;-80
2021/05/13 10:53:43;;;;;;;1.47;0.90;;;30.60;15.60;;;;;;5120124;27;39115;-82
2021/05/13 10:56:27;;;;;;;2.40;0.97;;;30.30;15.30;;;;;;5130898;27;37883;-82
2021/05/13 10:59:02;;;;;;;2.23;1.07;;;29.50;16.60;;;;;;5134793;27;39588;-81
2021/05/13 11:01:43;;;;;;;3.63;1.33;;;29.20;16.50;;;;;;5122166;27;37741;-81
2021/05/13 11:04:44;;;;;;;2.27;1.10;;;29.10;16.50;;;;;;5131977;27;38872;-82
2021/05/13 11:07:26;;;;;;;1.30;1.03;;;28.80;16.70;;;;;;5144747;27;37872;-81
2021/05/13 11:09:55;;;;;;;1.93;1.10;;;28.60;17.00;;;;;;5148265;27;39484;-81
2021/05/13 11:12:23;;;;;;;1.87;1.30;;;28.40;18.00;;;;;;5129140;27;39062;-81
2021/05/13 11:15:22;;;;;;;1.30;1.00;;;28.00;18.10;;;;;;5097509;28;36579;-82
2021/05/13 11:18:11;;;;;;;2.43;1.30;;;27.40;18.60;;;;;;5103866;28;36133;-81
2021/05/13 11:21:00;;;;;;;2.47;1.23;;;26.80;19.70;;;;;;5130157;27;39711;-82
2021/05/13 11:23:29;;;;;;;1.50;1.20;;;26.50;20.20;;;;;;5100812;27;37468;-80
2021/05/13 11:25:58;;;;;;;2.17;1.40;;;26.10;20.80;;;;;;5126802;27;38536;-81
2021/05/13 11:28:28;;;;;;;3.57;1.40;;;25.60;21.20;;;;;;5132509;27;37766;-82
2021/05/13 11:31:09;;;;;;;2.30;1.33;;;25.20;22.30;;;;;;5134958;27;40407;-81
2021/05/13 11:33:41;;;;;;;1.97;1.37;;;24.80;22.40;;;;;;5107600;27;37737;-82
2021/05/13 11:36:10;;;;;;;1.73;1.20;;;24.70;22.70;;;;;;5137366;27;37522;-83
2021/05/13 11:38:39;;;;;;;2.57;1.40;;;24.30;22.50;;;;;;5133542;27;35809;-81
2021/05/13 11:41:06;;;;;;;4.13;1.30;;;24.00;22.80;;;;;;5143050;27;39817;-82
2021/05/13 11:43:34;;;;;;;2.73;1.50;;;23.80;23.20;;;;;;5134322;27;37733;-81
2021/05/13 11:46:04;;;;;;;1.60;1.27;;;23.70;24.10;;;;;;5146818;27;39204;-80
2021/05/13 11:48:34;;;;;;;3.00;1.17;;;23.80;23.90;;;;;;5140951;27;36914;-78
2021/05/13 11:51:03;;;;;;;2.40;1.23;;;23.80;24.80;;;;;;5160145;27;40709;-79
2021/05/13 11:53:31;;;;;;;3.00;1.60;;;23.90;24.60;;;;;;5133085;27;37692;-80
2021/05/13 11:55:58;;;;;;;1.83;1.30;;;24.10;24.70;;;;;;5115611;27;38156;-80
2021/05/13 11:58:49;;;;;;;4.77;1.10;;;24.30;24.10;;;;;;5132378;27;37230;-80
2021/05/13 12:01:26;;;;;;;2.20;1.13;;;24.40;23.60;;;;;;5117978;27;39678;-79
2021/05/13 12:04:08;;;;;;;1.47;0.80;;;24.80;23.60;;;;;;5119630;27;39337;-79
2021/05/13 12:06:46;;;;;;;2.10;1.10;;;25.30;23.30;;;;;;5130603;27;38181;-80
2021/05/13 12:09:14;;;;;;;2.60;0.93;;;25.70;23.10;;;;;;5125592;27;37334;-80
2021/05/13 12:11:42;;;;;;;2.87;1.07;;;25.60;22.10;;;;;;5152481;27;40607;-79
2021/05/13 12:14:10;;;;;;;1.63;1.00;;;25.50;22.10;;;;;;5141285;27;39567;-80
2021/05/13 12:16:41;;;;;;;2.00;0.90;;;25.30;22.10;;;;;;5128359;27;38191;-79
2021/05/13 12:19:10;;;;;;;1.10;0.70;;;25.50;22.20;;;;;;5138731;27;37906;-79
2021/05/13 12:21:39;;;;;;;2.87;0.90;;;25.50;22.20;;;;;;5143436;27;40188;-81
2021/05/13 12:24:08;;;;;;;2.70;1.00;;;25.50;22.00;;;;;;5145052;27;40405;-82
2021/05/13 12:26:38;;;;;;;2.33;0.90;;;25.40;22.30;;;;;;5136912;27;37032;-80
2021/05/13 12:29:06;;;;;;;2.40;0.87;;;25.40;22.40;;;;;;5139760;27;37010;-80
2021/05/13 12:31:35;;;;;;;1.40;0.73;;;25.70;22.20;;;;;;5139421;27;39518;-80
2021/05/13 12:34:05;;;;;;;1.37;0.70;;;25.80;22.00;;;;;;5132233;27;39269;-79
2021/05/13 12:36:33;;;;;;;2.70;0.70;;;25.70;21.20;;;;;;5139022;27;38083;-79
2021/05/13 12:39:00;;;;;;;1.10;0.60;;;25.40;20.70;;;;;;5139631;27;37196;-79
2021/05/13 12:41:28;;;;;;;0.90;0.50;;;25.30;20.80;;;;;;5139437;27;40410;-79
2021/05/13 12:44:07;;;;;;;2.00;0.83;;;24.60;20.60;;;;;;5116224;27;37714;-79
2021/05/13 12:46:43;;;;;;;0.73;0.50;;;24.10;21.10;;;;;;5135635;27;37918;-79
2021/05/13 12:49:20;;;;;;;2.33;1.87;;;23.60;21.70;;;;;;5119104;27;36013;-79
2021/05/13 12:52:05;;;;;;;2.07;0.90;;;23.20;22.20;;;;;;5140919;27;39624;-78
2021/05/13 12:54:34;;;;;;;4.93;0.70;;;22.90;22.80;;;;;;5109978;27;37798;-78
2021/05/13 12:57:12;;;;;;;1.47;0.50;;;22.60;22.70;;;;;;5119013;27;36668;-79
2021/05/13 12:59:40;;;;;;;1.23;0.60;;;22.40;22.20;;;;;;5131937;27;38262;-79
2021/05/13 13:02:08;;;;;;;1.00;0.63;;;22.50;23.00;;;;;;5133348;27;39949;-80